Hannah Ray — WDE4972 — position and weather

sailwx.info

Track history (hours):
 
Tides and Currents Weather Stations Pressure Air Temp Water Temp Dewpoint Dewpoint Depression Visibility Wind Speed Wind Dir Waves Ship Positions

Hannah Ray

Owner: Offshore Oil Services, Inc., Clute, TX. More information available from US FCC via Universal Licensing System and Coast Guard Vessel Documentation Center.

Last reported at 2017-Dec-11 11:57 UTC. Time now 2017-Dec-12 06:09 UTC.
Position N 29°48' W 093°21'.

Length 40 m; draft 2 m.

MMSI: 367360360.

Date/timePositionNaut miles runAvg speedWind from/ knotsBaromVisibWave heightAir tempDewpointWater temp
2017-Dec-11 11:57N 29°48' W 093°21'0 0.2
2017-Dec-11 11:30N 29°48' W 093°21'0 0.0
2017-Dec-11 10:55N 29°48' W 093°21'0 0.0
2017-Dec-11 10:28N 29°48' W 093°21'0 0.0
2017-Dec-11 09:55N 29°48' W 093°21'0 0.0
2017-Dec-11 09:29N 29°48' W 093°21'0 0.0
2017-Dec-11 08:20N 29°48' W 093°21'0 0.0
2017-Dec-11 07:56N 29°48' W 093°21'0 0.0
2017-Dec-11 07:05N 29°48' W 093°21'0 0.0
2017-Dec-11 06:56N 29°48' W 093°21'0 0.0
2017-Dec-11 06:29N 29°48' W 093°21'  
2017-Dec-04 10:30N 29°47' W 092°09'4 7.2
2017-Dec-04 10:00N 29°45' W 092°12'5 9.5
2017-Dec-04 09:31N 29°41' W 092°15'1 0.1
2017-Dec-03 20:30N 29°41' W 092°15'5 9.5
2017-Dec-03 20:00N 29°45' W 092°13'3 5.4
2017-Dec-03 19:30N 29°47' W 092°11'2 4.0
2017-Dec-03 19:00N 29°47' W 092°09'0 0.0
2017-Dec-03 18:30N 29°47' W 092°09'0 0.0
2017-Dec-03 18:00N 29°47' W 092°09'0 0.0
2017-Dec-03 17:30N 29°47' W 092°09'0 0.0
2017-Dec-03 17:00N 29°47' W 092°09'0 0.0
2017-Dec-03 16:30N 29°47' W 092°09'0 0.0
2017-Dec-03 16:00N 29°47' W 092°09'0 0.0
2017-Dec-03 15:30N 29°47' W 092°09'0 0.0
2017-Dec-03 15:00N 29°47' W 092°09'0 0.0
2017-Dec-03 14:30N 29°47' W 092°09'0 0.0
2017-Dec-03 14:00N 29°47' W 092°09'0 0.0
2017-Dec-03 13:30N 29°47' W 092°09'0 0.0
2017-Dec-03 13:00N 29°47' W 092°09'0 0.0
2017-Dec-03 12:30N 29°47' W 092°09'0 0.0
2017-Dec-03 12:00N 29°47' W 092°09'0 0.0
2017-Dec-03 11:30N 29°47' W 092°09'0 0.0
2017-Dec-03 11:00N 29°47' W 092°09'0 0.0
2017-Dec-03 10:30N 29°47' W 092°09'0 0.0
2017-Dec-03 10:00N 29°47' W 092°09'0 0.0
2017-Dec-03 09:30N 29°47' W 092°09'0 0.0
2017-Dec-03 09:00N 29°47' W 092°09'0 0.0
2017-Dec-03 08:30N 29°47' W 092°09'0 0.0
2017-Dec-03 08:00N 29°47' W 092°09'0 0.0
2017-Dec-03 07:30N 29°47' W 092°09'0 0.0
2017-Dec-03 07:00N 29°47' W 092°09'0 0.0
2017-Dec-03 06:30N 29°47' W 092°09'0 0.0
2017-Dec-03 06:00N 29°47' W 092°09'0 0.0
2017-Dec-03 05:30N 29°47' W 092°09'0 0.0
2017-Dec-03 05:00N 29°47' W 092°09'0 0.0
2017-Dec-03 04:30N 29°47' W 092°09'0 0.0
2017-Dec-03 04:00N 29°47' W 092°09'0 0.0
2017-Dec-03 03:30N 29°47' W 092°09'0 0.0
2017-Dec-03 03:00N 29°47' W 092°09'0 0.0
2017-Dec-03 02:30N 29°47' W 092°09'0 0.0
2017-Dec-03 02:00N 29°47' W 092°09'0 0.0
2017-Dec-03 01:30N 29°47' W 092°09'0 0.0
2017-Dec-03 01:00N 29°47' W 092°09'0 0.0
2017-Dec-03 00:30N 29°47' W 092°09'0 0.0
2017-Dec-03 00:00N 29°47' W 092°09'0 0.0
2017-Dec-02 23:30N 29°47' W 092°09'0 0.0
2017-Dec-02 23:00N 29°47' W 092°09'0 0.0
2017-Dec-02 22:30N 29°47' W 092°09'0 0.0
2017-Dec-02 22:00N 29°47' W 092°09'0 0.0
2017-Dec-02 21:30N 29°47' W 092°09'0 0.0
2017-Dec-02 21:00N 29°47' W 092°09'0 0.0
2017-Dec-02 20:30N 29°47' W 092°09'0 0.0
2017-Dec-02 20:00N 29°47' W 092°09'2 4.1
2017-Dec-02 19:30N 29°47' W 092°11'2 4.0
2017-Dec-02 19:00N 29°47' W 092°09'0 0.0
2017-Dec-02 18:30N 29°47' W 092°09'0 0.0
2017-Dec-02 18:01N 29°47' W 092°09'0 0.0
2017-Dec-02 17:30N 29°47' W 092°09'0 0.0
2017-Dec-02 17:00N 29°47' W 092°09'0 0.0
2017-Dec-02 16:30N 29°47' W 092°09'0 0.0
2017-Dec-02 16:00N 29°47' W 092°09'0 0.0
2017-Dec-02 15:30N 29°47' W 092°09'0 0.0
2017-Dec-02 15:00N 29°47' W 092°09'0 0.0
2017-Dec-02 14:30N 29°47' W 092°09'0 0.0
2017-Dec-02 14:00N 29°47' W 092°09'0 0.0
2017-Dec-02 13:30N 29°47' W 092°09'0 0.0
2017-Dec-02 13:00N 29°47' W 092°09'0 0.0
2017-Dec-02 12:30N 29°47' W 092°09'0 0.0
2017-Dec-02 12:00N 29°47' W 092°09'0 0.0
2017-Dec-02 11:30N 29°47' W 092°09'0 0.0
2017-Dec-02 11:00N 29°47' W 092°09'0 0.0
2017-Dec-02 10:30N 29°47' W 092°09'0 0.0
2017-Dec-02 10:00N 29°47' W 092°09'0 0.0
2017-Dec-02 09:30N 29°47' W 092°09'0 0.0
2017-Dec-02 09:00N 29°47' W 092°09'0 0.0
2017-Dec-02 08:30N 29°47' W 092°09'2 3.1
2017-Dec-02 08:00N 29°47' W 092°10'510.8
2017-Dec-02 07:30N 29°43' W 092°15'2 0.1
2017-Dec-01 14:23N 29°41' W 092°15'4 9.8
2017-Dec-01 14:01N 29°44' W 092°14'5 9.1
2017-Dec-01 13:31N 29°47' W 092°10'1 2.2
2017-Dec-01 13:01N 29°47' W 092°09'0 0.0
2017-Dec-01 12:31N 29°47' W 092°09'0 0.0
2017-Dec-01 12:01N 29°47' W 092°09'  
Track history (hours):
 
Tides and Currents Weather Stations Pressure Air Temp Water Temp Dewpoint Dewpoint Depression Visibility Wind Speed Wind Dir Waves Ship Positions

Hannah Ray

Owner: Offshore Oil Services, Inc., Clute, TX. More information available from US FCC via Universal Licensing System and Coast Guard Vessel Documentation Center.

Last reported at 2017-Dec-11 11:57 UTC. Time now 2017-Dec-12 06:09 UTC.
Position N 29°48' W 093°21'.

Length 40 m; draft 2 m.

MMSI: 367360360.

Date/timePositionNaut miles runAvg speedWind from/ knotsBaromVisibWave heightAir tempDewpointWater temp
2017-Dec-11 11:57N 29°48' W 093°21'0 0.2
2017-Dec-11 11:30N 29°48' W 093°21'0 0.0
2017-Dec-11 10:55N 29°48' W 093°21'0 0.0
2017-Dec-11 10:28N 29°48' W 093°21'0 0.0
2017-Dec-11 09:55N 29°48' W 093°21'0 0.0
2017-Dec-11 09:29N 29°48' W 093°21'0 0.0
2017-Dec-11 08:20N 29°48' W 093°21'0 0.0
2017-Dec-11 07:56N 29°48' W 093°21'0 0.0
2017-Dec-11 07:05N 29°48' W 093°21'0 0.0
2017-Dec-11 06:56N 29°48' W 093°21'0 0.0
2017-Dec-11 06:29N 29°48' W 093°21'  
2017-Dec-04 10:30N 29°47' W 092°09'4 7.2
2017-Dec-04 10:00N 29°45' W 092°12'5 9.5
2017-Dec-04 09:31N 29°41' W 092°15'1 0.1
2017-Dec-03 20:30N 29°41' W 092°15'5 9.5
2017-Dec-03 20:00N 29°45' W 092°13'3 5.4
2017-Dec-03 19:30N 29°47' W 092°11'2 4.0
2017-Dec-03 19:00N 29°47' W 092°09'0 0.0
2017-Dec-03 18:30N 29°47' W 092°09'0 0.0
2017-Dec-03 18:00N 29°47' W 092°09'0 0.0
2017-Dec-03 17:30N 29°47' W 092°09'0 0.0
2017-Dec-03 17:00N 29°47' W 092°09'0 0.0
2017-Dec-03 16:30N 29°47' W 092°09'0 0.0
2017-Dec-03 16:00N 29°47' W 092°09'0 0.0
2017-Dec-03 15:30N 29°47' W 092°09'0 0.0
2017-Dec-03 15:00N 29°47' W 092°09'0 0.0
2017-Dec-03 14:30N 29°47' W 092°09'0 0.0
2017-Dec-03 14:00N 29°47' W 092°09'0 0.0
2017-Dec-03 13:30N 29°47' W 092°09'0 0.0
2017-Dec-03 13:00N 29°47' W 092°09'0 0.0
2017-Dec-03 12:30N 29°47' W 092°09'0 0.0
2017-Dec-03 12:00N 29°47' W 092°09'0 0.0
2017-Dec-03 11:30N 29°47' W 092°09'0 0.0
2017-Dec-03 11:00N 29°47' W 092°09'0 0.0
2017-Dec-03 10:30N 29°47' W 092°09'0 0.0
2017-Dec-03 10:00N 29°47' W 092°09'0 0.0
2017-Dec-03 09:30N 29°47' W 092°09'0 0.0
2017-Dec-03 09:00N 29°47' W 092°09'0 0.0
2017-Dec-03 08:30N 29°47' W 092°09'0 0.0
2017-Dec-03 08:00N 29°47' W 092°09'0 0.0
2017-Dec-03 07:30N 29°47' W 092°09'0 0.0
2017-Dec-03 07:00N 29°47' W 092°09'0 0.0
2017-Dec-03 06:30N 29°47' W 092°09'0 0.0
2017-Dec-03 06:00N 29°47' W 092°09'0 0.0
2017-Dec-03 05:30N 29°47' W 092°09'0 0.0
2017-Dec-03 05:00N 29°47' W 092°09'0 0.0
2017-Dec-03 04:30N 29°47' W 092°09'0 0.0
2017-Dec-03 04:00N 29°47' W 092°09'0 0.0
2017-Dec-03 03:30N 29°47' W 092°09'0 0.0
2017-Dec-03 03:00N 29°47' W 092°09'0 0.0
2017-Dec-03 02:30N 29°47' W 092°09'0 0.0
2017-Dec-03 02:00N 29°47' W 092°09'0 0.0
2017-Dec-03 01:30N 29°47' W 092°09'0 0.0
2017-Dec-03 01:00N 29°47' W 092°09'0 0.0
2017-Dec-03 00:30N 29°47' W 092°09'0 0.0
2017-Dec-03 00:00N 29°47' W 092°09'0 0.0
2017-Dec-02 23:30N 29°47' W 092°09'0 0.0
2017-Dec-02 23:00N 29°47' W 092°09'0 0.0
2017-Dec-02 22:30N 29°47' W 092°09'0 0.0
2017-Dec-02 22:00N 29°47' W 092°09'0 0.0
2017-Dec-02 21:30N 29°47' W 092°09'0 0.0
2017-Dec-02 21:00N 29°47' W 092°09'0 0.0
2017-Dec-02 20:30N 29°47' W 092°09'0 0.0
2017-Dec-02 20:00N 29°47' W 092°09'2 4.1
2017-Dec-02 19:30N 29°47' W 092°11'2 4.0
2017-Dec-02 19:00N 29°47' W 092°09'0 0.0
2017-Dec-02 18:30N 29°47' W 092°09'0 0.0
2017-Dec-02 18:01N 29°47' W 092°09'0 0.0
2017-Dec-02 17:30N 29°47' W 092°09'0 0.0
2017-Dec-02 17:00N 29°47' W 092°09'0 0.0
2017-Dec-02 16:30N 29°47' W 092°09'0 0.0
2017-Dec-02 16:00N 29°47' W 092°09'0 0.0
2017-Dec-02 15:30N 29°47' W 092°09'0 0.0
2017-Dec-02 15:00N 29°47' W 092°09'0 0.0
2017-Dec-02 14:30N 29°47' W 092°09'0 0.0
2017-Dec-02 14:00N 29°47' W 092°09'0 0.0
2017-Dec-02 13:30N 29°47' W 092°09'0 0.0
2017-Dec-02 13:00N 29°47' W 092°09'0 0.0
2017-Dec-02 12:30N 29°47' W 092°09'0 0.0
2017-Dec-02 12:00N 29°47' W 092°09'0 0.0
2017-Dec-02 11:30N 29°47' W 092°09'0 0.0
2017-Dec-02 11:00N 29°47' W 092°09'0 0.0
2017-Dec-02 10:30N 29°47' W 092°09'0 0.0
2017-Dec-02 10:00N 29°47' W 092°09'0 0.0
2017-Dec-02 09:30N 29°47' W 092°09'0 0.0
2017-Dec-02 09:00N 29°47' W 092°09'0 0.0
2017-Dec-02 08:30N 29°47' W 092°09'2 3.1
2017-Dec-02 08:00N 29°47' W 092°10'510.8
2017-Dec-02 07:30N 29°43' W 092°15'2 0.1
2017-Dec-01 14:23N 29°41' W 092°15'4 9.8
2017-Dec-01 14:01N 29°44' W 092°14'5 9.1
2017-Dec-01 13:31N 29°47' W 092°10'1 2.2
2017-Dec-01 13:01N 29°47' W 092°09'0 0.0
2017-Dec-01 12:31N 29°47' W 092°09'0 0.0
2017-Dec-01 12:01N 29°47' W 092°09'  

Dump ship's entire track history